Time,TemperatureF,DewpointF,PressureIn,WindDirection,WindDirectionDegrees,WindSpeedMPH,WindSpeedGustMPH,Humidity,HourlyPrecipIn,Conditions,Clouds,dailyrainin,SoftwareType,DateUTC
2013-02-03 00:03:00,20.0,18.0,29.87,WSW,250,8.0,13.0,92,0.00,,,0.00,,2013-02-03 05:03:00,
2013-02-03 00:12:00,20.0,18.0,29.87,WSW,250,8.0,13.0,92,0.00,,,0.00,,2013-02-03 05:12:00,
2013-02-03 00:22:00,20.0,18.0,29.87,WSW,247,3.0,9.0,92,0.00,,,0.00,,2013-02-03 05:22:00,
2013-02-03 00:32:00,20.0,18.0,29.87,SW,232,2.0,8.0,92,0.00,,,0.00,,2013-02-03 05:32:00,
2013-02-03 00:42:00,20.0,18.0,29.87,SW,232,2.0,8.0,92,0.00,,,0.00,,2013-02-03 05:42:00,
2013-02-03 00:52:00,20.0,18.0,29.87,SW,234,2.0,7.0,92,0.00,,,0.00,,2013-02-03 05:52:00,
2013-02-03 01:02:00,20.0,18.0,29.86,WSW,239,1.0,5.0,92,0.00,,,0.00,,2013-02-03 06:02:00,
2013-02-03 01:11:00,20.0,18.0,29.86,WSW,239,1.0,5.0,92,0.00,,,0.00,,2013-02-03 06:11:00,
2013-02-03 01:21:00,20.0,18.0,29.86,SW,231,2.0,5.0,93,0.00,,,0.00,,2013-02-03 06:21:00,
2013-02-03 01:32:00,20.0,18.0,29.85,SW,228,3.0,5.0,93,0.00,,,0.00,,2013-02-03 06:32:00,
2013-02-03 01:42:00,20.0,18.0,29.85,SW,228,3.0,5.0,93,0.00,,,0.00,,2013-02-03 06:42:00,
2013-02-03 01:52:00,20.0,18.0,29.85,WSW,244,2.0,5.0,93,0.00,,,0.00,,2013-02-03 06:52:00,
2013-02-03 02:02:00,20.0,18.0,29.84,WSW,251,3.0,7.0,93,0.00,,,0.00,,2013-02-03 07:02:00,
2013-02-03 02:11:00,20.0,18.0,29.84,WSW,251,3.0,7.0,93,0.00,,,0.00,,2013-02-03 07:11:00,
2013-02-03 02:21:00,20.0,18.0,29.83,SW,235,1.0,3.0,93,0.00,,,0.00,,2013-02-03 07:21:00,
2013-02-03 02:31:00,20.0,18.0,29.83,WSW,252,1.0,5.0,93,0.00,,,0.00,,2013-02-03 07:31:00,
2013-02-03 02:42:00,20.0,18.0,29.83,WSW,252,1.0,5.0,93,0.00,,,0.00,,2013-02-03 07:42:00,
2013-02-03 02:52:00,20.0,18.0,29.83,North,0,0.0,3.0,93,0.00,,,0.00,,2013-02-03 07:52:00,
2013-02-03 03:01:00,20.0,18.0,29.82,WSW,249,1.0,3.0,93,0.00,,,0.00,,2013-02-03 08:01:00,
2013-02-03 03:11:00,20.0,18.0,29.82,WSW,249,1.0,3.0,93,0.00,,,0.00,,2013-02-03 08:11:00,
2013-02-03 03:22:00,20.0,18.0,29.82,WSW,243,1.0,2.0,93,0.00,,,0.00,,2013-02-03 08:22:00,
2013-02-03 03:32:00,20.0,18.0,29.81,North,0,0.0,2.0,93,0.00,,,0.00,,2013-02-03 08:32:00,
2013-02-03 03:41:00,20.0,18.0,29.81,North,0,0.0,2.0,93,0.00,,,0.00,,2013-02-03 08:41:00,
2013-02-03 03:52:00,20.0,18.0,29.80,North,0,0.0,3.0,93,0.00,,,0.00,,2013-02-03 08:52:00,
2013-02-03 04:03:00,20.0,19.0,29.79,SW,228,1.0,3.0,94,0.00,,,0.00,,2013-02-03 09:03:00,
2013-02-03 04:11:00,20.0,19.0,29.79,SW,228,1.0,3.0,94,0.00,,,0.00,,2013-02-03 09:11:00,
2013-02-03 04:21:00,20.0,19.0,29.79,North,0,0.0,3.0,94,0.00,,,0.00,,2013-02-03 09:21:00,
2013-02-03 04:31:00,20.0,19.0,29.78,North,0,0.0,3.0,94,0.00,,,0.00,,2013-02-03 09:31:00,
2013-02-03 04:42:00,20.0,19.0,29.78,North,0,0.0,3.0,94,0.00,,,0.00,,2013-02-03 09:42:00,
2013-02-03 04:51:00,20.0,19.0,29.78,North,0,0.0,3.0,94,0.00,,,0.00,,2013-02-03 09:51:00,
2013-02-03 05:01:00,20.0,18.0,29.78,WSW,258,2.0,5.0,93,0.00,,,0.00,,2013-02-03 10:01:00,
2013-02-03 05:11:00,20.0,18.0,29.78,WSW,258,2.0,5.0,93,0.00,,,0.00,,2013-02-03 10:11:00,
2013-02-03 05:21:00,20.0,18.0,29.77,WSW,252,2.0,8.0,93,0.00,,,0.00,,2013-02-03 10:21:00,
2013-02-03 05:32:00,20.0,18.0,29.77,WSW,253,3.0,8.0,93,0.00,,,0.00,,2013-02-03 10:32:00,
2013-02-03 05:42:00,20.0,18.0,29.77,WSW,253,3.0,8.0,93,0.00,,,0.00,,2013-02-03 10:42:00,
2013-02-03 05:53:00,20.0,18.0,29.76,WSW,251,3.0,9.0,93,0.00,,,0.00,,2013-02-03 10:53:00,
2013-02-03 06:02:00,20.0,18.0,29.76,SW,229,2.0,6.0,93,0.00,,,0.00,,2013-02-03 11:02:00,
2013-02-03 06:11:00,20.0,18.0,29.76,SW,229,2.0,6.0,93,0.00,,,0.00,,2013-02-03 11:11:00,
2013-02-03 06:22:00,20.0,18.0,29.76,SW,225,1.0,3.0,93,0.00,,,0.00,,2013-02-03 11:22:00,
2013-02-03 06:32:00,20.0,18.0,29.76,North,0,0.0,3.0,93,0.00,,,0.00,,2013-02-03 11:32:00,
2013-02-03 06:42:00,20.0,18.0,29.76,North,0,0.0,3.0,93,0.00,,,0.00,,2013-02-03 11:42:00,
2013-02-03 06:52:00,20.0,18.0,29.76,WSW,240,1.0,3.0,93,0.00,,,0.00,,2013-02-03 11:52:00,
2013-02-03 07:02:00,20.0,18.0,29.77,SW,226,1.0,4.0,93,0.00,,,0.00,,2013-02-03 12:02:00,
2013-02-03 07:12:00,20.0,18.0,29.77,SW,226,1.0,4.0,93,0.00,,,0.00,,2013-02-03 12:12:00,
2013-02-03 07:22:00,20.0,18.0,29.77,SW,222,1.0,3.0,93,0.00,,,0.00,,2013-02-03 12:22:00,
2013-02-03 07:32:00,20.0,18.0,29.77,SW,235,2.0,5.0,93,0.00,,,0.00,,2013-02-03 12:32:00,
2013-02-03 07:42:00,20.0,18.0,29.77,SW,235,2.0,5.0,93,0.00,,,0.00,,2013-02-03 12:42:00,
2013-02-03 07:53:00,20.0,18.0,29.79,WSW,239,2.0,4.0,93,0.00,,,0.00,,2013-02-03 12:53:00,
2013-02-03 08:03:00,20.0,18.0,29.79,WSW,240,3.0,8.0,93,0.00,,,0.00,,2013-02-03 13:03:00,
2013-02-03 08:11:00,20.0,18.0,29.79,SW,219,2.0,5.0,93,0.00,,,0.00,,2013-02-03 13:11:00,
2013-02-03 08:22:00,20.0,18.0,29.79,SW,219,2.0,5.0,93,0.00,,,0.00,,2013-02-03 13:22:00,
2013-02-03 08:32:00,20.0,18.0,29.79,SSW,205,1.0,5.0,93,0.00,,,0.00,,2013-02-03 13:32:00,
2013-02-03 08:42:00,20.0,18.0,29.79,SSW,205,1.0,5.0,93,0.00,,,0.00,,2013-02-03 13:42:00,
2013-02-03 08:52:00,20.0,18.0,29.79,WSW,239,5.0,10.0,93,0.00,,,0.00,,2013-02-03 13:52:00,
2013-02-03 09:02:00,20.0,18.0,29.78,SW,227,2.0,6.0,92,0.00,,,0.00,,2013-02-03 14:02:00,
2013-02-03 09:12:00,20.0,18.0,29.78,SW,227,2.0,6.0,92,0.00,,,0.00,,2013-02-03 14:12:00,
2013-02-03 09:22:00,20.0,18.0,29.78,North,0,0.0,3.0,92,0.00,,,0.00,,2013-02-03 14:22:00,
2013-02-03 09:32:00,20.0,18.0,29.78,North,0,0.0,3.0,92,0.00,,,0.00,,2013-02-03 14:32:00,
2013-02-03 09:42:00,20.0,18.0,29.78,North,0,0.0,3.0,92,0.00,,,0.00,,2013-02-03 14:42:00,
2013-02-03 09:52:00,20.0,18.0,29.79,WSW,242,1.0,5.0,92,0.00,,,0.00,,2013-02-03 14:52:00,
2013-02-03 10:03:00,20.0,18.0,29.78,SW,221,1.0,4.0,92,0.00,,,0.00,,2013-02-03 15:03:00,
2013-02-03 10:11:00,20.0,18.0,29.78,SW,221,1.0,4.0,92,0.00,,,0.00,,2013-02-03 15:11:00,
2013-02-03 10:22:00,20.0,18.0,29.78,SW,221,1.0,4.0,92,0.00,,,0.00,,2013-02-03 15:22:00,
2013-02-03 10:33:00,21.0,19.0,29.78,North,0,0.0,3.0,92,0.00,,,0.00,,2013-02-03 15:33:00,
2013-02-03 10:42:00,21.0,19.0,29.78,North,0,0.0,3.0,92,0.00,,,0.00,,2013-02-03 15:42:00,
2013-02-03 10:52:00,21.0,19.0,29.78,SW,232,3.0,7.0,91,0.00,,,0.00,,2013-02-03 15:52:00,
2013-02-03 11:03:00,22.0,20.0,29.78,SW,225,1.0,7.0,91,0.00,,,0.00,,2013-02-03 16:03:00,
2013-02-03 11:11:00,22.0,20.0,29.78,SW,225,1.0,7.0,91,0.00,,,0.00,,2013-02-03 16:11:00,
2013-02-03 11:22:00,22.0,20.0,29.77,SW,233,3.0,8.0,90,0.00,,,0.00,,2013-02-03 16:22:00,
2013-02-03 11:33:00,23.0,20.0,29.76,WSW,247,4.0,8.0,88,0.00,,,0.00,,2013-02-03 16:33:00,
2013-02-03 11:42:00,23.0,20.0,29.76,WSW,247,4.0,8.0,88,0.00,,,0.00,,2013-02-03 16:42:00,
2013-02-03 11:52:00,23.0,20.0,29.75,WSW,239,2.0,7.0,88,0.00,,,0.00,,2013-02-03 16:52:00,
2013-02-03 12:03:00,23.0,20.0,29.74,WSW,249,2.0,7.0,87,0.00,,,0.00,,2013-02-03 17:03:00,
2013-02-03 12:11:00,23.0,20.0,29.74,WSW,249,2.0,7.0,87,0.00,,,0.00,,2013-02-03 17:11:00,
2013-02-03 12:22:00,23.0,20.0,29.73,WSW,243,5.0,8.0,88,0.00,,,0.00,,2013-02-03 17:22:00,
2013-02-03 12:32:00,23.0,21.0,29.73,WSW,257,1.0,7.0,90,0.00,,,0.00,,2013-02-03 17:32:00,
2013-02-03 12:42:00,23.0,21.0,29.73,WSW,257,1.0,7.0,90,0.00,,,0.00,,2013-02-03 17:42:00,
2013-02-03 12:52:00,23.0,21.0,29.73,WSW,245,2.0,5.0,90,0.00,,,0.00,,2013-02-03 17:52:00,
2013-02-03 13:03:00,23.0,20.0,29.72,WSW,249,3.0,6.0,89,0.01,,,0.01,,2013-02-03 18:03:00,
2013-02-03 13:12:00,23.0,20.0,29.72,WSW,249,3.0,6.0,89,0.01,,,0.01,,2013-02-03 18:12:00,
2013-02-03 13:23:00,23.0,20.0,29.71,WSW,241,3.0,7.0,89,0.01,,,0.01,,2013-02-03 18:23:00,
2013-02-03 13:33:00,23.0,21.0,29.71,West,271,2.0,8.0,90,0.02,,,0.02,,2013-02-03 18:33:00,
2013-02-03 13:42:00,23.0,21.0,29.71,West,271,2.0,8.0,90,0.02,,,0.02,,2013-02-03 18:42:00,
2013-02-03 13:51:00,24.0,21.0,29.70,WSW,240,5.0,9.0,88,0.02,,,0.02,,2013-02-03 18:51:00,
2013-02-03 14:02:00,24.0,21.0,29.70,SW,236,4.0,8.0,89,0.01,,,0.02,,2013-02-03 19:02:00,
2013-02-03 14:11:00,24.0,21.0,29.70,SW,236,4.0,8.0,89,0.01,,,0.02,,2013-02-03 19:11:00,
2013-02-03 14:22:00,24.0,21.0,29.69,WSW,237,5.0,12.0,88,0.01,,,0.02,,2013-02-03 19:22:00,
2013-02-03 14:32:00,23.0,20.0,29.69,WSW,238,6.0,11.0,89,0.00,,,0.02,,2013-02-03 19:32:00,
2013-02-03 14:42:00,23.0,20.0,29.69,WSW,238,6.0,11.0,89,0.00,,,0.02,,2013-02-03 19:42:00,
2013-02-03 14:51:00,23.0,20.0,29.69,WSW,244,7.0,13.0,89,0.00,,,0.02,,2013-02-03 19:51:00,
2013-02-03 15:02:00,23.0,20.0,29.69,SW,235,4.0,13.0,89,0.00,,,0.02,,2013-02-03 20:02:00,
2013-02-03 15:12:00,23.0,20.0,29.69,SW,235,4.0,13.0,89,0.00,,,0.02,,2013-02-03 20:12:00,
2013-02-03 15:22:00,24.0,-99.9,-100.00,West,259,5.0,11.0,-999,-99.99,,,-99.99,,2013-02-03 20:22:00,
2013-02-03 15:33:00,24.0,20.0,29.70,WSW,240,8.0,14.0,86,0.00,,,0.02,,2013-02-03 20:33:00,
2013-02-03 15:42:00,24.0,20.0,29.70,WSW,240,8.0,14.0,86,0.00,,,0.02,,2013-02-03 20:42:00,
2013-02-03 15:52:00,24.0,21.0,29.70,WSW,244,6.0,16.0,87,0.00,,,0.02,,2013-02-03 20:52:00,
2013-02-03 16:03:00,23.0,21.0,29.70,WSW,239,6.0,14.0,90,0.00,,,0.02,,2013-02-03 21:03:00,
2013-02-03 16:11:00,23.0,21.0,29.70,WSW,239,6.0,14.0,90,0.00,,,0.02,,2013-02-03 21:11:00,
2013-02-03 16:21:00,23.0,21.0,29.70,WSW,251,6.0,13.0,90,0.00,,,0.02,,2013-02-03 21:21:00,
2013-02-03 16:33:00,23.0,21.0,29.71,WSW,239,7.0,13.0,90,0.00,,,0.02,,2013-02-03 21:33:00,
2013-02-03 16:42:00,23.0,21.0,29.71,WSW,239,7.0,13.0,90,0.00,,,0.02,,2013-02-03 21:42:00,
2013-02-03 16:51:00,22.0,20.0,29.71,WSW,244,4.0,13.0,91,0.00,,,0.02,,2013-02-03 21:51:00,
2013-02-03 17:02:00,22.0,20.0,29.71,WSW,247,3.0,10.0,92,0.00,,,0.02,,2013-02-03 22:02:00,
2013-02-03 17:11:00,22.0,20.0,29.71,WSW,247,3.0,10.0,92,0.00,,,0.02,,2013-02-03 22:11:00,
2013-02-03 17:21:00,22.0,20.0,29.71,WSW,247,5.0,12.0,92,0.00,,,0.02,,2013-02-03 22:21:00,
2013-02-03 17:32:00,22.0,20.0,29.72,West,263,3.0,9.0,93,0.00,,,0.02,,2013-02-03 22:32:00,
2013-02-03 17:42:00,22.0,20.0,29.72,West,263,3.0,9.0,93,0.00,,,0.02,,2013-02-03 22:42:00,
2013-02-03 17:51:00,21.0,19.0,29.72,West,274,5.0,11.0,92,0.00,,,0.02,,2013-02-03 22:51:00,
2013-02-03 18:01:00,19.0,17.0,29.73,West,266,6.0,18.0,92,0.00,,,0.02,,2013-02-03 23:01:00,
2013-02-03 18:12:00,19.0,17.0,29.73,West,266,6.0,18.0,92,0.00,,,0.02,,2013-02-03 23:12:00,
2013-02-03 18:22:00,19.0,17.0,29.73,West,259,5.0,16.0,92,0.00,,,0.02,,2013-02-03 23:22:00,
2013-02-03 18:32:00,18.0,16.0,29.75,West,276,8.0,17.0,92,0.00,,,0.02,,2013-02-03 23:32:00,
2013-02-03 18:42:00,18.0,16.0,29.75,West,276,8.0,17.0,92,0.00,,,0.02,,2013-02-03 23:42:00,
2013-02-03 18:52:00,18.0,16.0,29.75,WSW,256,10.0,17.0,92,0.00,,,0.02,,2013-02-03 23:52:00,
2013-02-03 19:02:00,18.0,16.0,29.76,West,268,10.0,17.0,92,0.00,,,0.02,,2013-02-04 00:02:00,
2013-02-03 19:11:00,18.0,16.0,29.76,West,268,10.0,17.0,92,0.00,,,0.02,,2013-02-04 00:11:00,
2013-02-03 19:22:00,18.0,-99.9,-100.00,WNW,291,7.0,17.0,-999,0.00,,,-99.99,,2013-02-04 00:22:00,
2013-02-03 19:32:00,17.0,15.0,29.77,West,278,6.0,22.0,92,0.00,,,0.02,,2013-02-04 00:32:00,
2013-02-03 19:42:00,17.0,15.0,29.77,West,278,6.0,22.0,92,0.00,,,0.02,,2013-02-04 00:42:00,
2013-02-03 19:51:00,17.0,15.0,29.78,West,259,10.0,19.0,92,0.00,,,0.02,,2013-02-04 00:51:00,
2013-02-03 20:01:00,17.0,15.0,29.79,WSW,252,12.0,30.0,92,0.00,,,0.02,,2013-02-04 01:01:00,
2013-02-03 20:11:00,17.0,15.0,29.79,WSW,252,12.0,30.0,92,0.00,,,0.02,,2013-02-04 01:11:00,
2013-02-03 20:21:00,17.0,15.0,29.79,WSW,245,14.0,22.0,92,0.00,,,0.02,,2013-02-04 01:21:00,
2013-02-03 20:32:00,17.0,15.0,-100.00,WSW,254,9.0,24.0,92,0.00,,,0.02,,2013-02-04 01:32:00,
2013-02-03 20:42:00,17.0,15.0,-100.00,WSW,254,9.0,24.0,92,0.00,,,0.02,,2013-02-04 01:42:00,
2013-02-03 20:52:00,17.0,15.0,29.80,WSW,247,14.0,23.0,92,0.00,,,0.02,,2013-02-04 01:52:00,
2013-02-03 21:02:00,16.0,14.0,29.80,WSW,249,11.0,23.0,92,0.00,,,0.02,,2013-02-04 02:02:00,
2013-02-03 21:11:00,16.0,14.0,29.80,WSW,249,11.0,23.0,92,0.00,,,0.02,,2013-02-04 02:11:00,
2013-02-03 21:21:00,16.0,14.0,29.81,WSW,252,12.0,20.0,92,0.00,,,0.02,,2013-02-04 02:21:00,
2013-02-03 21:32:00,16.0,14.0,29.81,WSW,253,10.0,22.0,92,0.00,,,0.02,,2013-02-04 02:32:00,
2013-02-03 21:42:00,16.0,14.0,29.81,WSW,253,10.0,22.0,92,0.00,,,0.02,,2013-02-04 02:42:00,
2013-02-03 21:52:00,16.0,14.0,29.81,WSW,253,6.0,21.0,92,0.00,,,0.02,,2013-02-04 02:52:00,
2013-02-03 22:02:00,16.0,14.0,29.82,WSW,246,8.0,15.0,92,0.00,,,0.02,,2013-02-04 03:02:00,
2013-02-03 22:11:00,16.0,14.0,29.81,WSW,253,10.0,19.0,92,0.00,,,0.02,,2013-02-04 03:11:00,
2013-02-03 22:21:00,16.0,14.0,29.81,WSW,253,10.0,19.0,92,0.00,,,0.02,,2013-02-04 03:21:00,
2013-02-03 22:32:00,15.0,13.0,29.83,WSW,251,13.0,25.0,92,0.00,,,0.02,,2013-02-04 03:32:00,
2013-02-03 22:42:00,15.0,13.0,29.83,WSW,251,13.0,25.0,92,0.00,,,0.02,,2013-02-04 03:42:00,
2013-02-03 22:51:00,15.0,13.0,29.83,WSW,254,11.0,24.0,92,0.00,,,0.02,,2013-02-04 03:51:00,
2013-02-03 23:01:00,15.0,13.0,29.83,West,259,9.0,29.0,92,0.00,,,0.02,,2013-02-04 04:01:00,
2013-02-03 23:11:00,15.0,13.0,29.83,West,259,9.0,29.0,92,0.00,,,0.02,,2013-02-04 04:11:00,
2013-02-03 23:21:00,14.0,12.0,29.83,WSW,253,12.0,30.0,91,0.00,,,0.02,,2013-02-04 04:21:00,
2013-02-03 23:32:00,14.0,12.0,29.84,WSW,250,13.0,30.0,91,0.00,,,0.02,,2013-02-04 04:32:00,
2013-02-03 23:42:00,14.0,12.0,29.84,WSW,250,13.0,30.0,91,0.00,,,0.02,,2013-02-04 04:42:00,
2013-02-03 23:52:00,14.0,12.0,29.85,WSW,257,9.0,23.0,91,0.00,,,0.02,,2013-02-04 04:52:00,